createdAt,value
2022-10-12T00:00:31.604Z,58.78
2022-10-12T00:03:36.752Z,55.67
2022-10-12T00:06:41.188Z,56.68
2022-10-12T00:09:45.805Z,52.33
2022-10-12T00:12:50.257Z,56.26
2022-10-12T00:15:54.809Z,55.10
2022-10-12T00:18:59.964Z,55.22
2022-10-12T00:22:04.252Z,54.25
2022-10-12T00:25:09.367Z,53.67
2022-10-12T00:28:14.264Z,52.27
2022-10-12T00:31:21.842Z,48.92
2022-10-12T00:34:26.311Z,50.89
2022-10-12T00:37:30.755Z,50.27
2022-10-12T00:40:35.302Z,49.59
2022-10-12T00:43:42.889Z,46.93
2022-10-12T00:46:48.118Z,45.66
2022-10-12T00:49:57.442Z,45.96
2022-10-12T00:53:16.759Z,44.79
2022-10-12T00:56:25.357Z,45.01
2022-10-12T00:59:37.584Z,44.71
2022-10-12T01:02:44.412Z,45.23
2022-10-12T01:05:49.338Z,44.04
2022-10-12T01:08:56.290Z,42.77
2022-10-12T01:12:01.356Z,44.71
2022-10-12T01:15:06.836Z,42.00
2022-10-12T01:18:23.041Z,43.12
2022-10-12T01:21:28.314Z,43.39
2022-10-12T01:24:52.548Z,38.92
2022-10-12T01:28:05.382Z,41.42
2022-10-12T01:31:21.575Z,36.25
2022-10-12T01:34:45.001Z,38.82
2022-10-12T01:38:06.941Z,35.89
2022-10-12T01:41:16.058Z,40.62
2022-10-12T01:44:25.370Z,40.09
2022-10-12T01:47:30.106Z,38.36
2022-10-12T01:50:51.820Z,39.50
2022-10-12T01:54:22.834Z,39.47
2022-10-12T01:57:54.308Z,39.18
2022-10-12T02:01:17.078Z,37.63
2022-10-12T02:05:01.599Z,36.45
2022-10-12T02:08:31.532Z,37.69
2022-10-12T02:11:39.089Z,39.77
2022-10-12T02:14:58.484Z,35.25
2022-10-12T02:18:06.583Z,39.72
2022-10-12T02:21:15.173Z,38.35
2022-10-12T02:24:22.313Z,38.62
2022-10-12T02:27:28.490Z,37.34
2022-10-12T02:30:39.685Z,39.49
2022-10-12T02:34:05.637Z,37.77
2022-10-12T02:37:50.092Z,38.91
2022-10-12T02:40:59.432Z,38.72
2022-10-12T02:44:09.326Z,39.60
2022-10-12T02:47:17.746Z,38.96
2022-10-12T02:50:24.372Z,38.96
2022-10-12T02:53:31.059Z,38.90
2022-10-12T02:56:35.451Z,38.05
2022-10-12T02:59:39.905Z,38.23
2022-10-12T03:02:44.550Z,38.68
2022-10-12T03:05:48.840Z,38.34
2022-10-12T03:08:56.887Z,37.34
2022-10-12T03:12:01.315Z,36.62
2022-10-12T03:15:06.550Z,35.91
2022-10-12T03:18:11.385Z,35.88
2022-10-12T03:21:16.290Z,36.42
2022-10-12T03:24:21.055Z,37.64
2022-10-12T03:27:26.130Z,36.50
2022-10-12T03:30:30.742Z,36.65
2022-10-12T03:33:35.027Z,36.80
2022-10-12T03:36:39.735Z,36.25
2022-10-12T03:39:44.130Z,35.79
2022-10-12T03:42:48.600Z,36.58
2022-10-12T03:45:53.412Z,36.17
2022-10-12T03:49:00.195Z,35.61
2022-10-12T03:52:07.502Z,34.70
2022-10-12T03:55:12.161Z,35.02
2022-10-12T03:58:17.221Z,35.90
2022-10-12T04:01:22.025Z,35.47
2022-10-12T04:04:26.648Z,35.86
2022-10-12T04:07:30.884Z,36.14
2022-10-12T04:10:35.483Z,35.16
2022-10-12T04:13:39.921Z,35.07
2022-10-12T04:16:44.196Z,35.44
2022-10-12T04:19:48.873Z,35.50
2022-10-12T04:22:53.364Z,35.73
2022-10-12T04:25:57.862Z,34.85
2022-10-12T04:29:02.419Z,35.23
2022-10-12T04:32:12.209Z,34.66
2022-10-12T04:35:17.157Z,34.53
2022-10-12T04:38:21.760Z,34.63
2022-10-12T04:41:26.174Z,34.67
2022-10-12T04:44:32.334Z,34.66
2022-10-12T04:47:37.504Z,34.65
2022-10-12T04:50:42.172Z,34.69
2022-10-12T04:53:46.707Z,34.62
2022-10-12T04:56:51.641Z,33.47
2022-10-12T04:59:56.241Z,33.97
2022-10-12T05:03:00.559Z,34.21
2022-10-12T05:06:05.168Z,34.68
2022-10-12T05:09:13.196Z,35.39
2022-10-12T05:12:20.886Z,34.27
2022-10-12T05:15:25.856Z,34.22
2022-10-12T05:18:30.469Z,33.93
2022-10-12T05:21:35.328Z,34.19
2022-10-12T05:24:39.763Z,34.27
2022-10-12T05:27:44.331Z,34.42
2022-10-12T05:30:52.628Z,33.81
2022-10-12T05:33:56.754Z,34.44
2022-10-12T05:37:01.372Z,33.81
2022-10-12T05:40:06.320Z,34.05
2022-10-12T05:43:10.729Z,34.04
2022-10-12T05:46:15.133Z,34.43
2022-10-12T05:49:19.601Z,32.52
2022-10-12T05:52:23.968Z,33.16
2022-10-12T05:55:28.431Z,33.37
2022-10-12T05:58:33.246Z,33.11
2022-10-12T06:01:37.712Z,33.03
2022-10-12T06:04:42.192Z,33.38
2022-10-12T06:07:46.660Z,34.08
2022-10-12T06:10:53.198Z,32.85
2022-10-12T06:13:57.583Z,34.76
2022-10-12T06:17:01.898Z,34.16
2022-10-12T06:20:07.002Z,34.13
2022-10-12T06:23:11.330Z,34.50
2022-10-12T06:26:17.242Z,33.36
2022-10-12T06:29:24.012Z,34.06
2022-10-12T06:32:28.356Z,33.76
2022-10-12T06:35:32.904Z,34.03
2022-10-12T06:38:37.661Z,34.34
2022-10-12T06:41:41.952Z,35.09
2022-10-12T06:44:46.518Z,35.00
2022-10-12T06:47:50.806Z,34.67
2022-10-12T06:50:55.281Z,34.40
2022-10-12T06:53:59.374Z,34.65
2022-10-12T06:57:04.068Z,34.85
2022-10-12T07:00:10.588Z,34.98
2022-10-12T07:03:15.179Z,35.26
2022-10-12T07:06:20.072Z,35.22
2022-10-12T07:09:24.698Z,35.68
2022-10-12T07:12:28.864Z,35.53
2022-10-12T07:15:33.283Z,35.14
2022-10-12T07:18:37.797Z,35.26
2022-10-12T07:21:42.877Z,35.37
2022-10-12T07:24:47.570Z,35.32
2022-10-12T07:27:51.831Z,35.79
2022-10-12T07:31:01.205Z,35.56
2022-10-12T07:34:05.766Z,36.08
2022-10-12T07:37:10.242Z,35.90
2022-10-12T07:40:15.203Z,36.17
2022-10-12T07:43:19.902Z,36.44
2022-10-12T07:46:26.165Z,36.41
2022-10-12T07:49:30.767Z,36.55
2022-10-12T07:52:35.488Z,36.92
2022-10-12T07:55:40.065Z,36.73
2022-10-12T07:58:50.970Z,37.04
2022-10-12T08:01:55.605Z,37.62
2022-10-12T08:05:00.133Z,38.38
2022-10-12T08:08:04.483Z,38.29
2022-10-12T08:11:09.882Z,38.49
2022-10-12T08:14:16.459Z,38.57
2022-10-12T08:17:20.975Z,39.10
2022-10-12T08:20:25.232Z,39.82
2022-10-12T08:23:30.859Z,40.04
2022-10-12T08:26:35.527Z,40.40
2022-10-12T08:29:41.663Z,41.37
2022-10-12T08:32:46.778Z,41.77
2022-10-12T08:35:51.254Z,42.89
2022-10-12T08:38:57.251Z,43.55
2022-10-12T08:42:17.604Z,44.67
2022-10-12T08:45:30.053Z,46.23
2022-10-12T08:48:48.295Z,46.74
2022-10-12T08:52:02.437Z,49.31
2022-10-12T08:55:21.867Z,48.75
2022-10-12T08:58:33.539Z,49.04
2022-10-12T09:01:52.028Z,49.01
2022-10-12T09:05:18.434Z,51.44
2022-10-12T09:08:25.159Z,54.21
2022-10-12T09:11:48.512Z,52.47
2022-10-12T09:14:58.240Z,51.12
2022-10-12T09:18:07.199Z,51.60
2022-10-12T09:21:19.901Z,53.96
2022-10-12T09:24:28.206Z,52.87
2022-10-12T09:27:33.575Z,52.68
2022-10-12T09:30:42.992Z,53.20
2022-10-12T09:33:58.506Z,54.81
2022-10-12T09:37:05.804Z,53.03
2022-10-12T09:40:27.533Z,56.29
2022-10-12T09:43:32.712Z,55.39
2022-10-12T09:47:07.180Z,57.48
2022-10-12T09:50:11.892Z,56.92
2022-10-12T09:53:37.069Z,58.72
2022-10-12T09:56:50.896Z,57.44
2022-10-12T09:59:56.973Z,57.70
2022-10-12T10:03:03.063Z,56.79
2022-10-12T10:06:08.117Z,56.52
2022-10-12T10:09:30.313Z,58.98
2022-10-12T10:12:39.761Z,59.29
2022-10-12T10:15:49.390Z,59.42
2022-10-12T10:18:56.979Z,60.30
2022-10-12T10:22:10.103Z,60.44
2022-10-12T10:25:22.623Z,61.57
2022-10-12T10:28:31.729Z,61.68
2022-10-12T10:31:36.559Z,61.45
2022-10-12T10:34:43.658Z,61.77
2022-10-12T10:37:56.693Z,62.68
2022-10-12T10:41:05.224Z,62.33
2022-10-12T10:44:23.513Z,63.72
2022-10-12T10:47:28.950Z,62.20
2022-10-12T10:50:43.862Z,63.52
2022-10-12T10:53:51.286Z,63.30
2022-10-12T10:57:05.395Z,63.93
2022-10-12T11:00:45.184Z,64.93
2022-10-12T11:04:18.211Z,64.32
2022-10-12T11:07:42.843Z,64.28
2022-10-12T11:10:57.488Z,64.54
2022-10-12T11:14:09.591Z,64.31
2022-10-12T11:17:39.107Z,66.75
2022-10-12T11:21:33.851Z,66.43
2022-10-12T11:24:43.144Z,65.36
2022-10-12T11:27:52.773Z,64.80
2022-10-12T11:30:58.794Z,64.35
2022-10-12T11:34:13.350Z,64.85
2022-10-12T11:37:24.882Z,65.30
2022-10-12T11:44:44.915Z,68.37
2022-10-12T11:47:53.538Z,66.80
2022-10-12T11:51:04.103Z,66.66
2022-10-12T11:54:26.986Z,67.37
2022-10-12T11:57:38.317Z,67.14
2022-10-12T12:01:17.743Z,68.38
2022-10-12T12:04:48.460Z,68.32
2022-10-12T12:07:57.786Z,69.86
2022-10-12T12:11:19.787Z,70.44
2022-10-12T12:14:29.940Z,68.27
2022-10-12T12:17:36.060Z,65.49
2022-10-12T12:20:47.785Z,66.56
2022-10-12T12:23:57.382Z,69.94
2022-10-12T12:27:02.194Z,69.52
2022-10-12T12:30:25.403Z,70.86
2022-10-12T12:33:42.738Z,68.63
2022-10-12T12:36:50.915Z,68.37
2022-10-12T12:39:58.737Z,69.36
2022-10-12T12:43:36.514Z,71.17
2022-10-12T12:46:57.856Z,70.33
2022-10-12T12:50:40.120Z,70.26
2022-10-12T12:53:50.202Z,68.68
2022-10-12T12:57:13.946Z,70.42
2022-10-12T13:00:23.160Z,71.54
2022-10-12T13:03:34.268Z,72.55
2022-10-12T13:06:49.105Z,72.61
2022-10-12T13:10:13.492Z,71.44
2022-10-12T13:13:29.650Z,71.95
2022-10-12T13:17:30.703Z,72.68
2022-10-12T13:20:18.780Z,72.87
2022-10-12T13:23:27.403Z,70.71
2022-10-12T13:26:33.465Z,70.34
2022-10-12T13:29:49.815Z,71.65
2022-10-12T13:32:59.236Z,74.05
2022-10-12T13:36:18.401Z,71.14
2022-10-12T13:39:23.904Z,70.28
2022-10-12T13:42:33.624Z,71.32
2022-10-12T13:45:46.896Z,73.42
2022-10-12T13:49:00.011Z,72.73
2022-10-12T13:52:22.679Z,74.97
2022-10-12T13:55:27.922Z,74.64
2022-10-12T13:58:36.270Z,74.28
2022-10-12T14:01:54.187Z,76.69
2022-10-12T14:05:00.862Z,76.44
2022-10-12T14:08:15.847Z,75.59
2022-10-12T14:11:21.037Z,73.38
2022-10-12T14:14:37.701Z,75.15
2022-10-12T14:17:47.514Z,76.69
2022-10-12T14:20:52.459Z,75.49
2022-10-12T14:24:00.472Z,74.18
2022-10-12T14:27:10.256Z,76.17
2022-10-12T14:30:31.598Z,77.80
2022-10-12T14:33:36.289Z,79.05
2022-10-12T14:36:41.177Z,76.66
2022-10-12T14:39:48.571Z,76.57
2022-10-12T14:43:01.391Z,75.48
2022-10-12T14:46:07.821Z,74.79
2022-10-12T14:49:23.687Z,74.67
2022-10-12T14:52:36.657Z,74.54
2022-10-12T14:55:42.384Z,75.54
2022-10-12T14:58:46.842Z,78.27
2022-10-12T15:01:51.661Z,76.81
2022-10-12T15:04:57.525Z,76.75
2022-10-12T15:08:08.256Z,78.71
2022-10-12T15:11:14.849Z,76.80
2022-10-12T15:14:19.330Z,77.83
2022-10-12T15:17:24.419Z,76.15
2022-10-12T15:20:30.768Z,76.51
2022-10-12T15:23:35.455Z,76.69
2022-10-12T15:26:42.324Z,77.79
2022-10-12T15:29:48.972Z,78.05
2022-10-12T15:32:54.432Z,77.31
2022-10-12T15:35:59.085Z,77.85
2022-10-12T15:39:03.589Z,77.17
2022-10-12T15:42:09.084Z,77.19
2022-10-12T15:45:14.158Z,77.52
2022-10-12T15:48:18.855Z,78.15
2022-10-12T15:51:25.628Z,79.37
2022-10-12T15:54:30.149Z,79.28
2022-10-12T15:57:34.478Z,78.73
2022-10-12T16:00:38.975Z,74.77
2022-10-12T16:03:44.146Z,71.16
2022-10-12T16:06:48.456Z,70.46
2022-10-12T16:09:52.896Z,67.31
2022-10-12T16:12:57.630Z,65.44
2022-10-12T16:16:02.230Z,63.57
2022-10-12T16:19:06.751Z,62.55
2022-10-12T16:22:12.642Z,61.56
2022-10-12T16:25:19.902Z,61.38
2022-10-12T16:28:25.866Z,61.92
2022-10-12T16:31:30.710Z,62.10
2022-10-12T16:34:35.384Z,61.39
2022-10-12T16:37:39.835Z,60.77
2022-10-12T16:40:44.525Z,60.86
2022-10-12T16:43:49.014Z,60.30
2022-10-12T16:46:53.384Z,60.02
2022-10-12T16:49:57.616Z,59.82
2022-10-12T16:53:01.934Z,59.46
2022-10-12T16:56:06.764Z,58.79
2022-10-12T16:59:11.531Z,58.68
2022-10-12T17:02:17.273Z,58.42
2022-10-12T17:05:22.641Z,58.55
2022-10-12T17:08:27.677Z,57.72
2022-10-12T17:11:32.331Z,57.13
2022-10-12T17:14:36.980Z,56.90
2022-10-12T17:17:41.370Z,56.20
2022-10-12T17:20:48.224Z,56.47
2022-10-12T17:24:00.178Z,57.37
2022-10-12T17:27:06.527Z,57.23
2022-10-12T17:30:11.657Z,57.44
2022-10-12T17:33:17.455Z,58.03
2022-10-12T17:36:28.020Z,57.36
2022-10-12T17:39:37.652Z,57.16
2022-10-12T17:42:42.365Z,57.51
2022-10-12T17:45:47.069Z,57.42
2022-10-12T17:48:53.211Z,56.34
2022-10-12T17:51:58.171Z,56.26
2022-10-12T17:55:02.731Z,56.83
2022-10-12T17:58:07.596Z,57.11
2022-10-12T18:01:15.140Z,55.65
2022-10-12T18:04:20.832Z,55.04
2022-10-12T18:07:25.494Z,54.91
2022-10-12T18:10:30.116Z,55.01
2022-10-12T18:13:35.917Z,55.06
2022-10-12T18:16:42.114Z,55.83
2022-10-12T18:19:48.019Z,55.54
2022-10-12T18:22:52.812Z,56.69
2022-10-12T18:25:57.196Z,56.18
2022-10-12T18:29:02.932Z,57.04
2022-10-12T18:32:07.855Z,58.31
2022-10-12T18:35:12.392Z,57.96
2022-10-12T18:38:17.091Z,57.69
2022-10-12T18:41:23.426Z,57.89
2022-10-12T18:44:28.390Z,56.85
2022-10-12T18:47:32.730Z,57.24
2022-10-12T18:50:38.800Z,57.32
2022-10-12T18:53:43.527Z,57.45
2022-10-12T18:56:48.035Z,56.75
2022-10-12T18:59:53.146Z,56.39
2022-10-12T19:02:57.904Z,55.48
2022-10-12T19:06:10.985Z,54.85
2022-10-12T19:09:15.767Z,54.61
2022-10-12T19:12:20.611Z,53.83
2022-10-12T19:15:27.076Z,54.10
2022-10-12T19:18:31.398Z,54.38
2022-10-12T19:21:36.277Z,54.71
2022-10-12T19:24:40.644Z,55.44
2022-10-12T19:27:45.034Z,56.10
2022-10-12T19:30:49.437Z,56.07
2022-10-12T19:33:59.561Z,55.90
2022-10-12T19:37:03.933Z,55.46
2022-10-12T19:40:12.408Z,55.88
2022-10-12T19:43:16.824Z,55.08
2022-10-12T19:46:22.339Z,55.46
2022-10-12T19:49:26.532Z,55.49
2022-10-12T19:52:31.000Z,56.03
2022-10-12T19:55:35.715Z,56.16
2022-10-12T19:58:40.132Z,56.10
2022-10-12T20:01:48.773Z,56.21
2022-10-12T20:04:55.102Z,56.03
2022-10-12T20:07:59.693Z,56.46
2022-10-12T20:11:04.709Z,56.04
2022-10-12T20:14:09.296Z,56.08
2022-10-12T20:17:13.808Z,55.99
2022-10-12T20:20:18.397Z,55.59
2022-10-12T20:23:23.799Z,55.68
2022-10-12T20:26:29.755Z,56.24
2022-10-12T20:29:33.715Z,55.99
2022-10-12T20:32:38.414Z,55.71
2022-10-12T20:35:50.430Z,55.20
2022-10-12T20:38:54.985Z,55.19
2022-10-12T20:41:59.336Z,54.63
2022-10-12T20:45:03.709Z,55.25
2022-10-12T20:48:09.830Z,55.70
2022-10-12T20:51:24.379Z,55.41
2022-10-12T20:54:30.585Z,55.36
2022-10-12T20:57:34.986Z,55.52
2022-10-12T21:00:39.633Z,56.11
2022-10-12T21:03:44.255Z,55.93
2022-10-12T21:06:48.661Z,55.94
2022-10-12T21:09:53.271Z,55.90
2022-10-12T21:12:57.549Z,55.89
2022-10-12T21:16:02.454Z,56.20
2022-10-12T21:19:06.922Z,55.31
2022-10-12T21:22:11.266Z,55.28
2022-10-12T21:25:15.904Z,55.48
2022-10-12T21:28:21.164Z,55.15
2022-10-12T21:31:30.961Z,55.12
2022-10-12T21:34:36.570Z,55.04
2022-10-12T21:37:40.988Z,55.01
2022-10-12T21:40:45.604Z,55.35
2022-10-12T21:43:51.830Z,55.12
2022-10-12T21:46:56.116Z,55.18
2022-10-12T21:50:00.506Z,55.93
2022-10-12T21:53:05.018Z,56.00
2022-10-12T21:56:11.216Z,55.02
2022-10-12T21:59:15.863Z,55.14
2022-10-12T22:02:20.902Z,55.06
2022-10-12T22:05:25.609Z,55.26
2022-10-12T22:08:30.419Z,54.42
2022-10-12T22:11:37.295Z,55.12
2022-10-12T22:14:45.275Z,55.43
2022-10-12T22:17:49.831Z,54.86
2022-10-12T22:20:54.175Z,54.81
2022-10-12T22:23:59.266Z,54.34
2022-10-12T22:27:03.569Z,53.61
2022-10-12T22:30:08.626Z,53.20
2022-10-12T22:33:13.056Z,51.99
2022-10-12T22:36:18.272Z,51.75
2022-10-12T22:39:22.765Z,52.19
2022-10-12T22:42:27.235Z,52.13
2022-10-12T22:45:31.819Z,50.50
2022-10-12T22:48:37.568Z,49.72
2022-10-12T22:51:41.755Z,49.36
2022-10-12T22:54:46.329Z,49.34
2022-10-12T22:57:50.893Z,50.23
2022-10-12T23:01:03.495Z,50.68
2022-10-12T23:04:09.147Z,50.55
2022-10-12T23:07:13.629Z,49.26
2022-10-12T23:10:17.992Z,48.79
2022-10-12T23:13:22.431Z,48.53
2022-10-12T23:16:29.824Z,48.35
2022-10-12T23:19:35.096Z,48.65
2022-10-12T23:22:39.513Z,48.76
2022-10-12T23:25:44.021Z,49.25
2022-10-12T23:28:50.205Z,49.08
2022-10-12T23:31:54.853Z,48.77
2022-10-12T23:34:59.095Z,49.37
2022-10-12T23:38:03.501Z,49.43
2022-10-12T23:41:08.467Z,49.24
2022-10-12T23:44:13.221Z,49.63
2022-10-12T23:47:17.703Z,48.98
2022-10-12T23:50:22.057Z,48.28
2022-10-12T23:53:26.744Z,47.63
2022-10-12T23:56:31.136Z,47.88
2022-10-12T23:59:38.201Z,47.38
